sensor_id;sensor_type;location;lat;lon;timestamp;P1;durP1;ratioP1;P2;durP2;ratioP2
20966;SDS011;10642;50.682;18.510;2023-05-18T00:01:24;13.17;;;4.37;;
20966;SDS011;10642;50.682;18.510;2023-05-18T00:03:51;10.87;;;4.33;;
20966;SDS011;10642;50.682;18.510;2023-05-18T00:06:20;15.90;;;4.63;;
20966;SDS011;10642;50.682;18.510;2023-05-18T00:08:48;15.37;;;4.70;;
20966;SDS011;10642;50.682;18.510;2023-05-18T00:11:14;12.23;;;4.50;;
20966;SDS011;10642;50.682;18.510;2023-05-18T00:13:42;11.87;;;4.40;;
20966;SDS011;10642;50.682;18.510;2023-05-18T00:16:08;13.30;;;5.53;;
20966;SDS011;10642;50.682;18.510;2023-05-18T00:18:37;13.23;;;4.53;;
20966;SDS011;10642;50.682;18.510;2023-05-18T00:21:04;17.03;;;6.23;;
20966;SDS011;10642;50.682;18.510;2023-05-18T00:23:31;18.40;;;6.80;;
20966;SDS011;10642;50.682;18.510;2023-05-18T00:25:59;15.77;;;4.93;;
20966;SDS011;10642;50.682;18.510;2023-05-18T00:28:26;13.37;;;3.97;;
20966;SDS011;10642;50.682;18.510;2023-05-18T00:30:54;9.77;;;3.73;;
20966;SDS011;10642;50.682;18.510;2023-05-18T00:33:21;11.00;;;3.40;;
20966;SDS011;10642;50.682;18.510;2023-05-18T00:35:49;14.93;;;3.73;;
20966;SDS011;10642;50.682;18.510;2023-05-18T00:38:16;10.50;;;3.40;;
20966;SDS011;10642;50.682;18.510;2023-05-18T00:40:43;11.40;;;3.87;;
20966;SDS011;10642;50.682;18.510;2023-05-18T00:43:11;10.03;;;3.20;;
20966;SDS011;10642;50.682;18.510;2023-05-18T00:45:38;10.90;;;3.57;;
20966;SDS011;10642;50.682;18.510;2023-05-18T00:48:05;12.43;;;3.83;;
20966;SDS011;10642;50.682;18.510;2023-05-18T00:50:32;10.57;;;3.10;;
20966;SDS011;10642;50.682;18.510;2023-05-18T00:52:59;15.20;;;4.73;;
20966;SDS011;10642;50.682;18.510;2023-05-18T00:55:27;10.37;;;3.57;;
20966;SDS011;10642;50.682;18.510;2023-05-18T00:57:55;15.63;;;3.70;;
20966;SDS011;10642;50.682;18.510;2023-05-18T01:00:22;16.77;;;4.07;;
20966;SDS011;10642;50.682;18.510;2023-05-18T01:02:49;15.80;;;4.07;;
20966;SDS011;10642;50.682;18.510;2023-05-18T01:05:17;8.37;;;3.30;;
20966;SDS011;10642;50.682;18.510;2023-05-18T01:07:45;11.40;;;4.27;;
20966;SDS011;10642;50.682;18.510;2023-05-18T01:10:14;11.77;;;4.27;;
20966;SDS011;10642;50.682;18.510;2023-05-18T01:15:17;16.53;;;3.93;;
20966;SDS011;10642;50.682;18.510;2023-05-18T01:28:24;19.07;;;3.90;;
20966;SDS011;10642;50.682;18.510;2023-05-18T01:30:55;12.27;;;3.73;;
20966;SDS011;10642;50.682;18.510;2023-05-18T01:33:23;12.03;;;3.77;;
20966;SDS011;10642;50.682;18.510;2023-05-18T01:35:51;12.90;;;3.27;;
20966;SDS011;10642;50.682;18.510;2023-05-18T01:38:21;11.33;;;3.57;;
20966;SDS011;10642;50.682;18.510;2023-05-18T01:43:27;9.20;;;2.83;;
20966;SDS011;10642;50.682;18.510;2023-05-18T01:45:55;15.33;;;3.03;;
20966;SDS011;10642;50.682;18.510;2023-05-18T01:48:23;9.80;;;2.73;;
20966;SDS011;10642;50.682;18.510;2023-05-18T01:50:51;9.37;;;2.63;;
20966;SDS011;10642;50.682;18.510;2023-05-18T01:53:25;11.87;;;3.53;;
20966;SDS011;10642;50.682;18.510;2023-05-18T01:55:53;23.50;;;2.63;;
20966;SDS011;10642;50.682;18.510;2023-05-18T01:58:21;10.30;;;2.43;;
20966;SDS011;10642;50.682;18.510;2023-05-18T02:00:48;10.47;;;3.00;;
20966;SDS011;10642;50.682;18.510;2023-05-18T02:03:15;10.43;;;2.90;;
20966;SDS011;10642;50.682;18.510;2023-05-18T02:05:43;8.37;;;2.30;;
20966;SDS011;10642;50.682;18.510;2023-05-18T02:08:10;9.10;;;3.23;;
20966;SDS011;10642;50.682;18.510;2023-05-18T02:10:37;10.63;;;3.23;;
20966;SDS011;10642;50.682;18.510;2023-05-18T02:13:06;12.53;;;3.23;;
20966;SDS011;10642;50.682;18.510;2023-05-18T02:15:33;12.57;;;3.80;;
20966;SDS011;10642;50.682;18.510;2023-05-18T02:18:00;14.30;;;4.20;;
20966;SDS011;10642;50.682;18.510;2023-05-18T02:20:30;19.20;;;5.17;;
20966;SDS011;10642;50.682;18.510;2023-05-18T02:22:59;16.17;;;5.50;;
20966;SDS011;10642;50.682;18.510;2023-05-18T02:25:26;14.80;;;5.23;;
20966;SDS011;10642;50.682;18.510;2023-05-18T02:27:53;17.53;;;4.20;;
20966;SDS011;10642;50.682;18.510;2023-05-18T02:30:21;10.43;;;3.97;;
20966;SDS011;10642;50.682;18.510;2023-05-18T02:32:49;15.23;;;3.63;;
20966;SDS011;10642;50.682;18.510;2023-05-18T02:35:16;11.70;;;3.00;;
20966;SDS011;10642;50.682;18.510;2023-05-18T02:37:43;7.90;;;2.47;;
20966;SDS011;10642;50.682;18.510;2023-05-18T02:40:11;8.07;;;2.80;;
20966;SDS011;10642;50.682;18.510;2023-05-18T02:42:40;10.93;;;3.53;;
20966;SDS011;10642;50.682;18.510;2023-05-18T02:45:07;12.30;;;3.03;;
20966;SDS011;10642;50.682;18.510;2023-05-18T02:47:34;14.33;;;3.40;;
20966;SDS011;10642;50.682;18.510;2023-05-18T02:50:01;19.23;;;3.13;;
20966;SDS011;10642;50.682;18.510;2023-05-18T02:52:30;13.17;;;3.47;;
20966;SDS011;10642;50.682;18.510;2023-05-18T02:55:00;12.03;;;3.20;;
20966;SDS011;10642;50.682;18.510;2023-05-18T02:57:46;9.23;;;2.93;;
20966;SDS011;10642;50.682;18.510;2023-05-18T03:00:19;10.80;;;2.80;;
20966;SDS011;10642;50.682;18.510;2023-05-18T03:02:48;15.60;;;2.80;;
20966;SDS011;10642;50.682;18.510;2023-05-18T03:05:16;7.67;;;3.10;;
20966;SDS011;10642;50.682;18.510;2023-05-18T03:07:44;9.50;;;3.00;;
20966;SDS011;10642;50.682;18.510;2023-05-18T03:10:18;13.97;;;3.10;;
20966;SDS011;10642;50.682;18.510;2023-05-18T03:12:46;11.17;;;2.90;;
20966;SDS011;10642;50.682;18.510;2023-05-18T03:15:13;14.70;;;3.13;;
20966;SDS011;10642;50.682;18.510;2023-05-18T03:17:42;11.33;;;2.90;;
20966;SDS011;10642;50.682;18.510;2023-05-18T03:20:10;10.90;;;3.30;;
20966;SDS011;10642;50.682;18.510;2023-05-18T03:22:40;10.80;;;3.13;;
20966;SDS011;10642;50.682;18.510;2023-05-18T03:25:07;7.73;;;2.27;;
20966;SDS011;10642;50.682;18.510;2023-05-18T03:27:34;8.63;;;2.87;;
20966;SDS011;10642;50.682;18.510;2023-05-18T03:30:04;10.33;;;2.90;;
20966;SDS011;10642;50.682;18.510;2023-05-18T03:32:31;7.67;;;2.83;;
20966;SDS011;10642;50.682;18.510;2023-05-18T03:34:58;11.33;;;3.13;;
20966;SDS011;10642;50.682;18.510;2023-05-18T03:37:27;12.13;;;3.07;;
20966;SDS011;10642;50.682;18.510;2023-05-18T03:39:57;8.97;;;2.87;;
20966;SDS011;10642;50.682;18.510;2023-05-18T03:42:25;9.10;;;2.17;;
20966;SDS011;10642;50.682;18.510;2023-05-18T03:44:52;10.73;;;2.77;;
20966;SDS011;10642;50.682;18.510;2023-05-18T03:47:20;8.07;;;2.67;;
20966;SDS011;10642;50.682;18.510;2023-05-18T03:49:47;7.23;;;3.07;;
20966;SDS011;10642;50.682;18.510;2023-05-18T03:52:14;12.07;;;3.33;;
20966;SDS011;10642;50.682;18.510;2023-05-18T03:54:47;13.17;;;4.30;;
20966;SDS011;10642;50.682;18.510;2023-05-18T03:57:15;12.83;;;3.33;;
20966;SDS011;10642;50.682;18.510;2023-05-18T03:59:43;7.40;;;2.30;;
20966;SDS011;10642;50.682;18.510;2023-05-18T04:02:10;8.43;;;3.63;;
20966;SDS011;10642;50.682;18.510;2023-05-18T04:04:38;12.97;;;3.07;;
20966;SDS011;10642;50.682;18.510;2023-05-18T04:07:14;9.33;;;2.70;;
20966;SDS011;10642;50.682;18.510;2023-05-18T04:09:48;8.20;;;3.20;;
20966;SDS011;10642;50.682;18.510;2023-05-18T04:12:14;9.60;;;3.27;;
20966;SDS011;10642;50.682;18.510;2023-05-18T04:14:42;8.00;;;2.67;;
20966;SDS011;10642;50.682;18.510;2023-05-18T04:17:08;9.53;;;2.97;;
20966;SDS011;10642;50.682;18.510;2023-05-18T04:19:36;12.43;;;2.43;;
20966;SDS011;10642;50.682;18.510;2023-05-18T04:22:04;10.93;;;2.40;;
20966;SDS011;10642;50.682;18.510;2023-05-18T04:24:31;9.53;;;2.87;;
20966;SDS011;10642;50.682;18.510;2023-05-18T04:27:00;6.97;;;2.20;;
20966;SDS011;10642;50.682;18.510;2023-05-18T04:29:27;10.00;;;2.20;;
20966;SDS011;10642;50.682;18.510;2023-05-18T04:31:55;8.03;;;2.00;;
20966;SDS011;10642;50.682;18.510;2023-05-18T04:34:26;8.27;;;2.70;;
20966;SDS011;10642;50.682;18.510;2023-05-18T04:36:54;5.83;;;2.00;;
20966;SDS011;10642;50.682;18.510;2023-05-18T04:39:22;8.17;;;2.30;;
20966;SDS011;10642;50.682;18.510;2023-05-18T04:41:50;6.23;;;1.93;;
20966;SDS011;10642;50.682;18.510;2023-05-18T04:44:28;9.20;;;2.17;;
20966;SDS011;10642;50.682;18.510;2023-05-18T04:46:58;11.40;;;2.47;;
20966;SDS011;10642;50.682;18.510;2023-05-18T04:49:25;12.40;;;2.40;;
20966;SDS011;10642;50.682;18.510;2023-05-18T04:51:54;18.67;;;2.87;;
20966;SDS011;10642;50.682;18.510;2023-05-18T04:54:22;7.43;;;2.10;;
20966;SDS011;10642;50.682;18.510;2023-05-18T04:56:50;16.60;;;2.73;;
20966;SDS011;10642;50.682;18.510;2023-05-18T04:59:17;8.97;;;2.63;;
20966;SDS011;10642;50.682;18.510;2023-05-18T05:01:45;9.27;;;2.80;;
20966;SDS011;10642;50.682;18.510;2023-05-18T05:04:12;17.87;;;2.30;;
20966;SDS011;10642;50.682;18.510;2023-05-18T05:06:39;7.80;;;2.33;;
20966;SDS011;10642;50.682;18.510;2023-05-18T05:09:06;7.10;;;2.20;;
20966;SDS011;10642;50.682;18.510;2023-05-18T05:11:33;8.77;;;2.53;;
20966;SDS011;10642;50.682;18.510;2023-05-18T05:14:01;12.27;;;2.80;;
20966;SDS011;10642;50.682;18.510;2023-05-18T05:16:29;8.87;;;2.17;;
20966;SDS011;10642;50.682;18.510;2023-05-18T05:18:56;14.63;;;2.20;;
20966;SDS011;10642;50.682;18.510;2023-05-18T05:21:23;8.20;;;2.70;;
20966;SDS011;10642;50.682;18.510;2023-05-18T05:23:51;11.13;;;2.70;;
20966;SDS011;10642;50.682;18.510;2023-05-18T05:26:18;10.70;;;2.30;;
20966;SDS011;10642;50.682;18.510;2023-05-18T05:28:46;8.87;;;2.77;;
20966;SDS011;10642;50.682;18.510;2023-05-18T05:31:13;8.23;;;2.37;;
20966;SDS011;10642;50.682;18.510;2023-05-18T05:33:42;10.17;;;2.80;;
20966;SDS011;10642;50.682;18.510;2023-05-18T05:36:11;8.17;;;2.10;;
20966;SDS011;10642;50.682;18.510;2023-05-18T05:38:38;13.03;;;2.83;;
20966;SDS011;10642;50.682;18.510;2023-05-18T05:41:06;8.50;;;2.27;;
20966;SDS011;10642;50.682;18.510;2023-05-18T05:43:33;8.97;;;2.60;;
20966;SDS011;10642;50.682;18.510;2023-05-18T05:46:01;9.10;;;1.90;;
20966;SDS011;10642;50.682;18.510;2023-05-18T05:48:28;10.00;;;2.73;;
20966;SDS011;10642;50.682;18.510;2023-05-18T05:50:56;9.40;;;2.50;;
20966;SDS011;10642;50.682;18.510;2023-05-18T05:53:23;10.27;;;2.23;;
20966;SDS011;10642;50.682;18.510;2023-05-18T05:55:51;8.33;;;2.40;;
20966;SDS011;10642;50.682;18.510;2023-05-18T05:58:19;14.73;;;2.93;;
20966;SDS011;10642;50.682;18.510;2023-05-18T06:00:51;12.00;;;2.70;;
20966;SDS011;10642;50.682;18.510;2023-05-18T06:03:18;20.23;;;2.97;;
20966;SDS011;10642;50.682;18.510;2023-05-18T06:05:46;8.83;;;2.43;;
20966;SDS011;10642;50.682;18.510;2023-05-18T06:08:14;13.77;;;2.53;;
20966;SDS011;10642;50.682;18.510;2023-05-18T06:10:43;8.60;;;2.10;;
20966;SDS011;10642;50.682;18.510;2023-05-18T06:13:10;6.57;;;2.03;;
20966;SDS011;10642;50.682;18.510;2023-05-18T06:15:45;9.37;;;2.00;;
20966;SDS011;10642;50.682;18.510;2023-05-18T06:18:13;9.37;;;2.20;;
20966;SDS011;10642;50.682;18.510;2023-05-18T06:20:40;8.63;;;2.13;;
20966;SDS011;10642;50.682;18.510;2023-05-18T06:23:07;6.47;;;2.40;;
20966;SDS011;10642;50.682;18.510;2023-05-18T06:26:03;12.80;;;2.30;;
20966;SDS011;10642;50.682;18.510;2023-05-18T06:28:33;7.77;;;2.00;;
20966;SDS011;10642;50.682;18.510;2023-05-18T06:31:14;10.73;;;2.30;;
20966;SDS011;10642;50.682;18.510;2023-05-18T06:33:49;9.13;;;2.63;;
20966;SDS011;10642;50.682;18.510;2023-05-18T06:36:16;7.47;;;2.10;;
20966;SDS011;10642;50.682;18.510;2023-05-18T06:38:43;7.27;;;2.23;;
20966;SDS011;10642;50.682;18.510;2023-05-18T06:41:10;9.83;;;2.37;;
20966;SDS011;10642;50.682;18.510;2023-05-18T06:43:37;12.37;;;2.50;;
20966;SDS011;10642;50.682;18.510;2023-05-18T06:46:20;8.63;;;2.37;;
20966;SDS011;10642;50.682;18.510;2023-05-18T06:48:50;8.60;;;1.93;;
20966;SDS011;10642;50.682;18.510;2023-05-18T06:51:17;8.07;;;2.43;;
20966;SDS011;10642;50.682;18.510;2023-05-18T06:53:45;10.67;;;2.57;;
20966;SDS011;10642;50.682;18.510;2023-05-18T06:56:13;12.47;;;2.73;;
20966;SDS011;10642;50.682;18.510;2023-05-18T06:58:42;8.37;;;1.93;;
20966;SDS011;10642;50.682;18.510;2023-05-18T07:01:09;7.13;;;1.90;;
20966;SDS011;10642;50.682;18.510;2023-05-18T07:03:36;7.53;;;2.10;;
20966;SDS011;10642;50.682;18.510;2023-05-18T07:06:03;5.93;;;1.80;;
20966;SDS011;10642;50.682;18.510;2023-05-18T07:08:30;9.37;;;2.10;;
20966;SDS011;10642;50.682;18.510;2023-05-18T07:10:57;6.23;;;2.17;;
20966;SDS011;10642;50.682;18.510;2023-05-18T07:13:24;9.83;;;2.10;;
20966;SDS011;10642;50.682;18.510;2023-05-18T07:15:51;8.20;;;2.43;;
20966;SDS011;10642;50.682;18.510;2023-05-18T07:18:18;11.13;;;2.00;;
20966;SDS011;10642;50.682;18.510;2023-05-18T07:20:45;7.53;;;2.03;;
20966;SDS011;10642;50.682;18.510;2023-05-18T07:23:12;7.20;;;2.23;;
20966;SDS011;10642;50.682;18.510;2023-05-18T07:25:39;7.30;;;2.20;;
20966;SDS011;10642;50.682;18.510;2023-05-18T07:28:06;15.23;;;2.90;;
20966;SDS011;10642;50.682;18.510;2023-05-18T07:30:34;9.57;;;2.10;;
20966;SDS011;10642;50.682;18.510;2023-05-18T07:33:00;6.67;;;2.47;;
20966;SDS011;10642;50.682;18.510;2023-05-18T07:35:27;8.30;;;2.20;;
20966;SDS011;10642;50.682;18.510;2023-05-18T07:37:55;8.77;;;1.70;;
20966;SDS011;10642;50.682;18.510;2023-05-18T07:40:22;7.43;;;2.50;;
20966;SDS011;10642;50.682;18.510;2023-05-18T07:42:49;6.97;;;2.40;;
20966;SDS011;10642;50.682;18.510;2023-05-18T07:45:16;6.67;;;1.80;;
20966;SDS011;10642;50.682;18.510;2023-05-18T07:47:43;7.23;;;2.50;;
20966;SDS011;10642;50.682;18.510;2023-05-18T07:50:10;6.63;;;2.20;;
20966;SDS011;10642;50.682;18.510;2023-05-18T07:52:37;9.73;;;2.43;;
20966;SDS011;10642;50.682;18.510;2023-05-18T07:55:04;8.60;;;2.20;;
20966;SDS011;10642;50.682;18.510;2023-05-18T07:57:32;9.80;;;2.37;;
20966;SDS011;10642;50.682;18.510;2023-05-18T07:59:59;6.83;;;2.23;;
20966;SDS011;10642;50.682;18.510;2023-05-18T08:02:26;5.83;;;2.30;;
20966;SDS011;10642;50.682;18.510;2023-05-18T08:04:56;7.83;;;2.30;;
20966;SDS011;10642;50.682;18.510;2023-05-18T08:07:23;9.60;;;2.13;;
20966;SDS011;10642;50.682;18.510;2023-05-18T08:09:51;9.80;;;2.10;;
20966;SDS011;10642;50.682;18.510;2023-05-18T08:12:19;8.57;;;2.90;;
20966;SDS011;10642;50.682;18.510;2023-05-18T08:14:45;9.57;;;2.27;;
20966;SDS011;10642;50.682;18.510;2023-05-18T08:17:12;7.13;;;1.90;;
20966;SDS011;10642;50.682;18.510;2023-05-18T08:19:40;7.77;;;2.13;;
20966;SDS011;10642;50.682;18.510;2023-05-18T08:22:07;5.53;;;1.87;;
20966;SDS011;10642;50.682;18.510;2023-05-18T08:24:34;7.30;;;2.17;;
20966;SDS011;10642;50.682;18.510;2023-05-18T08:27:01;6.13;;;2.17;;
20966;SDS011;10642;50.682;18.510;2023-05-18T08:29:29;39.83;;;6.30;;
20966;SDS011;10642;50.682;18.510;2023-05-18T08:31:56;12.23;;;2.10;;
20966;SDS011;10642;50.682;18.510;2023-05-18T08:34:23;11.70;;;2.43;;
20966;SDS011;10642;50.682;18.510;2023-05-18T08:36:51;7.93;;;2.40;;
20966;SDS011;10642;50.682;18.510;2023-05-18T08:39:18;44.47;;;6.13;;
20966;SDS011;10642;50.682;18.510;2023-05-18T08:42:01;7.63;;;2.77;;
20966;SDS011;10642;50.682;18.510;2023-05-18T08:44:42;23.97;;;4.40;;
20966;SDS011;10642;50.682;18.510;2023-05-18T08:47:11;10.37;;;2.33;;
20966;SDS011;10642;50.682;18.510;2023-05-18T08:49:40;7.30;;;2.00;;
20966;SDS011;10642;50.682;18.510;2023-05-18T08:52:08;8.13;;;2.27;;
20966;SDS011;10642;50.682;18.510;2023-05-18T08:54:35;7.90;;;2.73;;
20966;SDS011;10642;50.682;18.510;2023-05-18T08:57:06;6.70;;;1.73;;
20966;SDS011;10642;50.682;18.510;2023-05-18T08:59:35;8.13;;;3.03;;
20966;SDS011;10642;50.682;18.510;2023-05-18T09:02:03;15.37;;;3.13;;
20966;SDS011;10642;50.682;18.510;2023-05-18T09:04:30;6.23;;;2.40;;
20966;SDS011;10642;50.682;18.510;2023-05-18T09:07:00;14.60;;;2.50;;
20966;SDS011;10642;50.682;18.510;2023-05-18T09:09:28;7.73;;;2.47;;
20966;SDS011;10642;50.682;18.510;2023-05-18T09:11:55;10.10;;;2.07;;
20966;SDS011;10642;50.682;18.510;2023-05-18T09:14:22;8.23;;;1.70;;
20966;SDS011;10642;50.682;18.510;2023-05-18T09:16:51;10.50;;;3.47;;
20966;SDS011;10642;50.682;18.510;2023-05-18T09:19:18;6.77;;;2.67;;
20966;SDS011;10642;50.682;18.510;2023-05-18T09:21:45;8.77;;;2.40;;
20966;SDS011;10642;50.682;18.510;2023-05-18T09:24:12;6.90;;;2.20;;
20966;SDS011;10642;50.682;18.510;2023-05-18T09:26:41;7.83;;;2.13;;
20966;SDS011;10642;50.682;18.510;2023-05-18T09:29:18;7.40;;;2.43;;
20966;SDS011;10642;50.682;18.510;2023-05-18T09:31:46;7.63;;;2.07;;
20966;SDS011;10642;50.682;18.510;2023-05-18T09:34:14;8.70;;;2.20;;
20966;SDS011;10642;50.682;18.510;2023-05-18T09:36:41;9.53;;;2.23;;
20966;SDS011;10642;50.682;18.510;2023-05-18T09:39:12;9.53;;;2.60;;
20966;SDS011;10642;50.682;18.510;2023-05-18T09:41:39;6.87;;;2.00;;
20966;SDS011;10642;50.682;18.510;2023-05-18T09:44:07;8.50;;;2.33;;
20966;SDS011;10642;50.682;18.510;2023-05-18T09:46:38;7.37;;;2.60;;
20966;SDS011;10642;50.682;18.510;2023-05-18T09:49:05;5.27;;;2.10;;
20966;SDS011;10642;50.682;18.510;2023-05-18T09:51:38;7.87;;;1.93;;
20966;SDS011;10642;50.682;18.510;2023-05-18T09:54:06;6.67;;;1.90;;
20966;SDS011;10642;50.682;18.510;2023-05-18T09:56:35;9.13;;;2.13;;
20966;SDS011;10642;50.682;18.510;2023-05-18T09:59:12;8.13;;;1.90;;
20966;SDS011;10642;50.682;18.510;2023-05-18T10:01:55;10.50;;;2.30;;
20966;SDS011;10642;50.682;18.510;2023-05-18T10:04:22;5.93;;;2.60;;
20966;SDS011;10642;50.682;18.510;2023-05-18T10:06:49;4.90;;;2.13;;
20966;SDS011;10642;50.682;18.510;2023-05-18T10:09:16;7.70;;;2.97;;
20966;SDS011;10642;50.682;18.510;2023-05-18T10:11:43;9.03;;;2.50;;
20966;SDS011;10642;50.682;18.510;2023-05-18T10:14:10;7.90;;;2.47;;
20966;SDS011;10642;50.682;18.510;2023-05-18T10:16:39;7.03;;;2.50;;
20966;SDS011;10642;50.682;18.510;2023-05-18T10:19:06;7.00;;;2.50;;
20966;SDS011;10642;50.682;18.510;2023-05-18T10:21:34;8.97;;;2.50;;
20966;SDS011;10642;50.682;18.510;2023-05-18T10:24:02;10.30;;;5.13;;
20966;SDS011;10642;50.682;18.510;2023-05-18T10:26:30;6.93;;;3.30;;
20966;SDS011;10642;50.682;18.510;2023-05-18T10:28:58;7.73;;;6.30;;
20966;SDS011;10642;50.682;18.510;2023-05-18T10:31:26;7.87;;;2.50;;
20966;SDS011;10642;50.682;18.510;2023-05-18T10:33:54;7.73;;;2.10;;
20966;SDS011;10642;50.682;18.510;2023-05-18T10:36:22;6.97;;;2.67;;
20966;SDS011;10642;50.682;18.510;2023-05-18T10:38:51;3.97;;;2.27;;
20966;SDS011;10642;50.682;18.510;2023-05-18T10:41:18;5.03;;;1.97;;
20966;SDS011;10642;50.682;18.510;2023-05-18T10:43:47;10.23;;;2.37;;
20966;SDS011;10642;50.682;18.510;2023-05-18T10:46:15;12.50;;;2.30;;
20966;SDS011;10642;50.682;18.510;2023-05-18T10:48:42;4.50;;;1.67;;
20966;SDS011;10642;50.682;18.510;2023-05-18T10:51:11;6.37;;;2.17;;
20966;SDS011;10642;50.682;18.510;2023-05-18T10:53:38;2.83;;;1.50;;
20966;SDS011;10642;50.682;18.510;2023-05-18T10:56:09;7.30;;;1.63;;
20966;SDS011;10642;50.682;18.510;2023-05-18T10:58:36;6.47;;;1.77;;
20966;SDS011;10642;50.682;18.510;2023-05-18T11:01:04;5.00;;;2.03;;
20966;SDS011;10642;50.682;18.510;2023-05-18T11:03:32;8.53;;;1.97;;
20966;SDS011;10642;50.682;18.510;2023-05-18T11:06:06;7.00;;;1.80;;
20966;SDS011;10642;50.682;18.510;2023-05-18T11:08:46;8.73;;;2.10;;
20966;SDS011;10642;50.682;18.510;2023-05-18T11:11:13;4.30;;;1.73;;
20966;SDS011;10642;50.682;18.510;2023-05-18T11:13:47;4.90;;;1.53;;
20966;SDS011;10642;50.682;18.510;2023-05-18T11:16:14;9.57;;;2.00;;
20966;SDS011;10642;50.682;18.510;2023-05-18T11:18:47;6.63;;;1.80;;
20966;SDS011;10642;50.682;18.510;2023-05-18T11:26:37;6.73;;;2.10;;
20966;SDS011;10642;50.682;18.510;2023-05-18T11:29:50;5.70;;;1.40;;
20966;SDS011;10642;50.682;18.510;2023-05-18T11:31:52;6.63;;;1.50;;
20966;SDS011;10642;50.682;18.510;2023-05-18T11:37:05;5.07;;;1.40;;
20966;SDS011;10642;50.682;18.510;2023-05-18T11:39:36;3.00;;;1.10;;
20966;SDS011;10642;50.682;18.510;2023-05-18T11:42:17;6.07;;;1.53;;
20966;SDS011;10642;50.682;18.510;2023-05-18T11:44:50;4.23;;;1.53;;
20966;SDS011;10642;50.682;18.510;2023-05-18T11:47:17;5.57;;;1.77;;
20966;SDS011;10642;50.682;18.510;2023-05-18T11:49:45;4.13;;;1.23;;
20966;SDS011;10642;50.682;18.510;2023-05-18T11:52:19;3.73;;;1.27;;
20966;SDS011;10642;50.682;18.510;2023-05-18T11:54:53;7.37;;;1.40;;
20966;SDS011;10642;50.682;18.510;2023-05-18T11:57:24;6.33;;;1.30;;
20966;SDS011;10642;50.682;18.510;2023-05-18T11:59:55;5.63;;;1.43;;
20966;SDS011;10642;50.682;18.510;2023-05-18T12:02:25;2.97;;;1.30;;
20966;SDS011;10642;50.682;18.510;2023-05-18T12:04:53;6.57;;;1.77;;
20966;SDS011;10642;50.682;18.510;2023-05-18T12:07:20;2.80;;;1.40;;
20966;SDS011;10642;50.682;18.510;2023-05-18T12:09:47;4.03;;;1.27;;
20966;SDS011;10642;50.682;18.510;2023-05-18T12:12:15;5.63;;;1.53;;
20966;SDS011;10642;50.682;18.510;2023-05-18T12:14:56;5.13;;;1.40;;
20966;SDS011;10642;50.682;18.510;2023-05-18T12:17:42;3.37;;;1.67;;
20966;SDS011;10642;50.682;18.510;2023-05-18T12:20:13;9.73;;;4.03;;
20966;SDS011;10642;50.682;18.510;2023-05-18T12:22:42;19.03;;;10.47;;
20966;SDS011;10642;50.682;18.510;2023-05-18T12:25:09;11.67;;;3.90;;
20966;SDS011;10642;50.682;18.510;2023-05-18T12:27:37;10.57;;;2.80;;
20966;SDS011;10642;50.682;18.510;2023-05-18T12:30:26;12.23;;;3.10;;
20966;SDS011;10642;50.682;18.510;2023-05-18T12:33:01;6.60;;;1.90;;
20966;SDS011;10642;50.682;18.510;2023-05-18T12:35:29;8.73;;;2.57;;
20966;SDS011;10642;50.682;18.510;2023-05-18T12:37:57;12.57;;;3.13;;
20966;SDS011;10642;50.682;18.510;2023-05-18T12:40:26;12.90;;;2.73;;
20966;SDS011;10642;50.682;18.510;2023-05-18T12:42:54;5.70;;;1.60;;
20966;SDS011;10642;50.682;18.510;2023-05-18T12:45:22;6.47;;;1.97;;
20966;SDS011;10642;50.682;18.510;2023-05-18T12:47:50;5.63;;;1.80;;
20966;SDS011;10642;50.682;18.510;2023-05-18T12:50:21;5.03;;;1.27;;
20966;SDS011;10642;50.682;18.510;2023-05-18T12:52:49;5.17;;;1.30;;
20966;SDS011;10642;50.682;18.510;2023-05-18T12:55:19;7.40;;;1.77;;
20966;SDS011;10642;50.682;18.510;2023-05-18T12:57:57;4.60;;;1.77;;
20966;SDS011;10642;50.682;18.510;2023-05-18T13:00:24;5.03;;;1.50;;
20966;SDS011;10642;50.682;18.510;2023-05-18T13:02:52;11.30;;;1.80;;
20966;SDS011;10642;50.682;18.510;2023-05-18T13:05:22;4.57;;;1.50;;
20966;SDS011;10642;50.682;18.510;2023-05-18T13:07:49;5.43;;;1.73;;
20966;SDS011;10642;50.682;18.510;2023-05-18T13:10:16;5.73;;;1.70;;
20966;SDS011;10642;50.682;18.510;2023-05-18T13:12:45;4.13;;;1.40;;
20966;SDS011;10642;50.682;18.510;2023-05-18T13:17:46;6.80;;;1.77;;
20966;SDS011;10642;50.682;18.510;2023-05-18T13:20:13;4.23;;;1.70;;
20966;SDS011;10642;50.682;18.510;2023-05-18T13:22:41;6.53;;;1.30;;
20966;SDS011;10642;50.682;18.510;2023-05-18T13:25:08;3.90;;;1.40;;
20966;SDS011;10642;50.682;18.510;2023-05-18T13:27:35;3.47;;;1.50;;
20966;SDS011;10642;50.682;18.510;2023-05-18T13:30:02;5.27;;;1.73;;
20966;SDS011;10642;50.682;18.510;2023-05-18T13:32:29;7.97;;;1.63;;
20966;SDS011;10642;50.682;18.510;2023-05-18T13:34:56;2.37;;;1.40;;
20966;SDS011;10642;50.682;18.510;2023-05-18T13:37:23;4.93;;;1.37;;
20966;SDS011;10642;50.682;18.510;2023-05-18T13:39:50;5.03;;;1.30;;
20966;SDS011;10642;50.682;18.510;2023-05-18T13:42:17;4.60;;;1.47;;
20966;SDS011;10642;50.682;18.510;2023-05-18T13:44:46;2.17;;;1.17;;
20966;SDS011;10642;50.682;18.510;2023-05-18T13:47:13;1.60;;;1.20;;
20966;SDS011;10642;50.682;18.510;2023-05-18T13:49:40;3.77;;;1.67;;
20966;SDS011;10642;50.682;18.510;2023-05-18T13:52:07;7.60;;;1.73;;
20966;SDS011;10642;50.682;18.510;2023-05-18T13:54:34;2.63;;;1.40;;
20966;SDS011;10642;50.682;18.510;2023-05-18T13:57:01;6.47;;;1.53;;
20966;SDS011;10642;50.682;18.510;2023-05-18T13:59:28;4.20;;;1.50;;
20966;SDS011;10642;50.682;18.510;2023-05-18T14:01:55;5.73;;;1.77;;
20966;SDS011;10642;50.682;18.510;2023-05-18T14:04:22;2.90;;;1.40;;
20966;SDS011;10642;50.682;18.510;2023-05-18T14:06:49;6.60;;;1.50;;
20966;SDS011;10642;50.682;18.510;2023-05-18T14:09:20;4.97;;;1.33;;
20966;SDS011;10642;50.682;18.510;2023-05-18T14:11:47;5.60;;;2.10;;
20966;SDS011;10642;50.682;18.510;2023-05-18T14:14:17;5.17;;;2.10;;
20966;SDS011;10642;50.682;18.510;2023-05-18T14:16:44;5.13;;;1.90;;
20966;SDS011;10642;50.682;18.510;2023-05-18T14:19:11;7.13;;;1.70;;
20966;SDS011;10642;50.682;18.510;2023-05-18T14:21:38;3.77;;;1.33;;
20966;SDS011;10642;50.682;18.510;2023-05-18T14:24:05;7.03;;;1.50;;
20966;SDS011;10642;50.682;18.510;2023-05-18T14:26:33;5.33;;;1.43;;
20966;SDS011;10642;50.682;18.510;2023-05-18T14:29:02;4.57;;;1.60;;
20966;SDS011;10642;50.682;18.510;2023-05-18T14:31:29;5.17;;;1.60;;
20966;SDS011;10642;50.682;18.510;2023-05-18T14:33:56;5.13;;;1.50;;
20966;SDS011;10642;50.682;18.510;2023-05-18T14:36:22;3.30;;;1.80;;
20966;SDS011;10642;50.682;18.510;2023-05-18T14:38:49;6.30;;;2.00;;
20966;SDS011;10642;50.682;18.510;2023-05-18T14:41:16;4.33;;;2.00;;
20966;SDS011;10642;50.682;18.510;2023-05-18T14:43:43;6.07;;;2.20;;
20966;SDS011;10642;50.682;18.510;2023-05-18T14:46:12;6.50;;;2.00;;
20966;SDS011;10642;50.682;18.510;2023-05-18T14:48:39;5.43;;;1.90;;
20966;SDS011;10642;50.682;18.510;2023-05-18T14:51:06;6.40;;;2.10;;
20966;SDS011;10642;50.682;18.510;2023-05-18T14:53:33;6.70;;;2.40;;
20966;SDS011;10642;50.682;18.510;2023-05-18T14:56:00;8.07;;;2.50;;
20966;SDS011;10642;50.682;18.510;2023-05-18T14:58:31;6.17;;;2.10;;
20966;SDS011;10642;50.682;18.510;2023-05-18T15:00:58;6.20;;;2.03;;
20966;SDS011;10642;50.682;18.510;2023-05-18T15:03:25;3.87;;;2.10;;
20966;SDS011;10642;50.682;18.510;2023-05-18T15:05:53;5.23;;;2.03;;